Time;durP1;ratioP1;P1;durP2;ratioP2;P2;SDS_P1;SDS_P2;PMS_P1;PMS_P2;Temp;Humidity;BMP_temperature;BMP_pressure;BME280_temperature;BME280_humidity;BME280_pressure;Samples;Min_cycle;Max_cycle;Signal;HPM_P1;HPM_P2
2023/05/14 00:00:00;;;;;;;11.10;4.85;;;;;;;;;;4294662;33;20087;-75
2023/05/14 02:02:41;;;;;;;11.80;5.65;;;;;;;;;;4277048;33;20063;-77
2023/05/14 02:05:09;;;;;;;7.72;5.40;;;;;;;;;;4279966;33;20071;-74
2023/05/14 02:07:35;;;;;;;10.23;6.10;;;;;;;;;;4260073;33;20049;-74
2023/05/14 02:10:01;;;;;;;10.68;6.00;;;;;;;;;;4264661;33;20448;-76
2023/05/14 02:12:27;;;;;;;12.18;5.55;;;;;;;;;;4264539;33;20054;-76
2023/05/14 02:14:54;;;;;;;12.18;5.28;;;;;;;;;;4263275;33;20085;-77
2023/05/14 02:17:20;;;;;;;7.75;5.15;;;;;;;;;;4262351;33;20444;-76
2023/05/14 02:19:46;;;;;;;8.50;5.35;;;;;;;;;;4259237;33;20051;-76
2023/05/14 02:22:13;;;;;;;17.65;5.65;;;;;;;;;;4264626;33;20045;-76
2023/05/14 02:24:39;;;;;;;7.82;5.80;;;;;;;;;;4264555;33;20059;-76
2023/05/14 02:27:05;;;;;;;7.00;5.25;;;;;;;;;;4263117;33;20067;-77
2023/05/14 02:29:32;;;;;;;11.82;5.75;;;;;;;;;;4249567;33;20058;-76
2023/05/14 02:31:58;;;;;;;9.32;5.50;;;;;;;;;;4250610;33;20051;-77
2023/05/14 02:34:25;;;;;;;11.60;6.78;;;;;;;;;;4249830;33;20067;-75
2023/05/14 02:36:57;;;;;;;12.75;5.93;;;;;;;;;;4250596;33;20180;-74
2023/05/14 02:39:23;;;;;;;8.40;4.87;;;;;;;;;;4222758;33;20072;-78
2023/05/14 02:41:49;;;;;;;14.87;7.93;;;;;;;;;;4222032;33;20489;-75
2023/05/14 02:44:16;;;;;;;10.55;5.55;;;;;;;;;;4222003;34;20125;-74
2023/05/14 02:46:42;;;;;;;11.50;5.60;;;;;;;;;;4222342;33;20047;-75
2023/05/14 02:49:08;;;;;;;14.60;5.80;;;;;;;;;;4228089;33;20081;-75
2023/05/14 02:51:34;;;;;;;12.82;6.93;;;;;;;;;;4235033;33;20970;-78
2023/05/14 02:54:06;;;;;;;;;;;;;;;;;;4236116;33;20066;-75
2023/05/14 02:56:32;;;;;;;8.60;5.32;;;;;;;;;;4236131;33;20016;-75
2023/05/14 02:58:59;;;;;;;13.18;6.75;;;;;;;;;;4236111;33;20080;-75
2023/05/14 03:01:25;;;;;;;16.15;7.32;;;;;;;;;;4235723;33;20050;-75
2023/05/14 03:03:51;;;;;;;17.42;9.10;;;;;;;;;;4233485;33;20072;-74
2023/05/14 03:06:17;;;;;;;18.67;8.95;;;;;;;;;;4264287;33;20083;-74
2023/05/14 03:08:44;;;;;;;12.73;6.90;;;;;;;;;;4264185;33;20074;-74
2023/05/14 03:11:10;;;;;;;16.73;7.87;;;;;;;;;;4275499;33;20038;-75
2023/05/14 03:13:37;;;;;;;11.82;6.70;;;;;;;;;;4278510;33;20528;-79
2023/05/14 03:16:02;;;;;;;16.45;8.13;;;;;;;;;;4279808;33;20110;-75
2023/05/14 03:18:29;;;;;;;19.02;7.18;;;;;;;;;;4280281;33;20269;-75
2023/05/14 03:20:55;;;;;;;16.23;8.43;;;;;;;;;;4275638;33;20075;-75
2023/05/14 03:23:21;;;;;;;18.83;7.65;;;;;;;;;;4280624;33;20524;-75
2023/05/14 03:25:47;;;;;;;15.07;7.18;;;;;;;;;;4279468;33;20041;-77
2023/05/14 03:28:14;;;;;;;16.87;8.30;;;;;;;;;;4280655;33;20386;-75
2023/05/14 03:30:40;;;;;;;13.73;7.68;;;;;;;;;;4279700;33;20045;-74
2023/05/14 03:33:06;;;;;;;19.62;8.52;;;;;;;;;;4281062;33;20075;-74
2023/05/14 03:35:32;;;;;;;13.32;7.85;;;;;;;;;;4279427;33;20398;-76
2023/05/14 03:37:58;;;;;;;21.23;8.82;;;;;;;;;;4258957;33;20384;-78
2023/05/14 03:40:24;;;;;;;16.27;8.40;;;;;;;;;;4251495;33;20050;-74
2023/05/14 03:42:51;;;;;;;16.95;8.02;;;;;;;;;;4252080;33;20201;-76
2023/05/14 03:45:17;;;;;;;13.23;7.53;;;;;;;;;;4250601;33;20046;-75
2023/05/14 03:47:44;;;;;;;17.67;7.65;;;;;;;;;;4252342;33;20100;-75
2023/05/14 03:50:10;;;;;;;17.42;7.47;;;;;;;;;;4251826;33;20037;-77
2023/05/14 03:52:37;;;;;;;17.60;7.80;;;;;;;;;;4240117;33;20078;-76
2023/05/14 03:55:03;;;;;;;20.33;7.85;;;;;;;;;;4238093;33;20199;-75
2023/05/14 03:57:29;;;;;;;21.05;7.57;;;;;;;;;;4237820;33;20107;-76
2023/05/14 03:59:55;;;;;;;11.70;7.07;;;;;;;;;;4237182;33;20054;-76
2023/05/14 04:02:21;;;;;;;12.23;7.07;;;;;;;;;;4250235;33;20046;-75
2023/05/14 04:04:47;;;;;;;11.27;6.70;;;;;;;;;;4248961;33;20083;-78
2023/05/14 04:07:18;;;;;;;12.75;6.85;;;;;;;;;;4231209;33;20076;-76
2023/05/14 04:09:44;;;;;;;14.10;6.85;;;;;;;;;;4224093;33;20149;-77
2023/05/14 04:12:11;;;;;;;11.63;7.43;;;;;;;;;;4223782;34;20043;-76
2023/05/14 04:14:37;;;;;;;17.33;5.80;;;;;;;;;;4210759;33;20035;-80
2023/05/14 04:17:03;;;;;;;16.00;6.25;;;;;;;;;;4207986;34;20054;-78
2023/05/14 04:19:36;;;;;;;15.45;6.60;;;;;;;;;;4208531;34;20103;-77
2023/05/14 04:22:03;;;;;;;15.20;6.40;;;;;;;;;;4208515;34;20080;-77
2023/05/14 04:24:29;;;;;;;14.52;6.03;;;;;;;;;;4207724;34;20030;-79
2023/05/14 04:26:55;;;;;;;10.73;5.30;;;;;;;;;;4219497;33;20073;-77
2023/05/14 04:29:21;;;;;;;10.70;5.65;;;;;;;;;;4207698;34;20493;-77
2023/05/14 04:31:50;;;;;;;14.35;6.05;;;;;;;;;;4206597;34;20081;-78
2023/05/14 04:34:16;;;;;;;11.60;5.28;;;;;;;;;;4215966;34;20043;-77
2023/05/14 04:36:43;;;;;;;18.85;6.28;;;;;;;;;;4216599;34;20064;-77
2023/05/14 04:39:11;;;;;;;9.95;5.10;;;;;;;;;;4216297;34;20035;-77
2023/05/14 04:41:37;;;;;;;11.32;5.80;;;;;;;;;;4217469;34;20051;-76
2023/05/14 04:44:11;;;;;;;6.72;4.82;;;;;;;;;;4223031;33;20397;-76
2023/05/14 04:46:37;;;;;;;12.63;4.90;;;;;;;;;;4245393;33;20045;-78
2023/05/14 04:49:03;;;;;;;6.07;3.42;;;;;;;;;;4250073;33;20065;-77
2023/05/14 04:51:30;;;;;;;6.28;3.50;;;;;;;;;;4249560;33;20068;-77
2023/05/14 04:53:56;;;;;;;5.30;2.90;;;;;;;;;;4274101;33;20038;-77
2023/05/14 04:56:34;;;;;;;4.20;3.40;;;;;;;;;;4277226;33;20104;-79
2023/05/14 04:59:06;;;;;;;5.90;3.53;;;;;;;;;;4277833;33;20092;-76
2023/05/14 05:01:33;;;;;;;4.95;2.75;;;;;;;;;;4279004;33;20146;-76
2023/05/14 05:04:01;;;;;;;6.93;3.22;;;;;;;;;;4278716;33;20072;-76
2023/05/14 05:06:30;;;;;;;7.10;3.37;;;;;;;;;;4276372;33;20740;-76
2023/05/14 05:08:57;;;;;;;5.20;3.17;;;;;;;;;;4276643;33;20038;-77
2023/05/14 05:11:24;;;;;;;6.47;2.72;;;;;;;;;;4279140;33;20072;-76
2023/05/14 05:13:50;;;;;;;5.05;3.03;;;;;;;;;;4279220;33;20439;-76
2023/05/14 05:16:16;;;;;;;3.50;2.80;;;;;;;;;;4279101;33;20056;-77
2023/05/14 05:18:43;;;;;;;16.65;4.05;;;;;;;;;;4262936;33;20128;-76
2023/05/14 05:21:09;;;;;;;4.07;2.95;;;;;;;;;;4248674;33;20053;-77
2023/05/14 05:23:35;;;;;;;3.70;2.97;;;;;;;;;;4250999;33;20121;-79
2023/05/14 05:26:02;;;;;;;10.35;3.00;;;;;;;;;;4236875;33;20054;-77
2023/05/14 05:28:28;;;;;;;3.78;2.20;;;;;;;;;;4236246;33;20086;-77
2023/05/14 05:30:54;;;;;;;4.93;3.05;;;;;;;;;;4235483;33;20054;-76
2023/05/14 05:33:20;;;;;;;5.75;2.78;;;;;;;;;;4234879;33;20038;-79
2023/05/14 05:35:47;;;;;;;5.25;2.83;;;;;;;;;;4235898;33;20054;-76
2023/05/14 05:38:14;;;;;;;5.70;2.72;;;;;;;;;;4222069;34;20050;-77
2023/05/14 05:40:40;;;;;;;10.82;3.72;;;;;;;;;;4222803;33;20063;-76
2023/05/14 05:43:06;;;;;;;5.05;3.15;;;;;;;;;;4234468;33;20035;-76
2023/05/14 05:45:33;;;;;;;4.93;3.10;;;;;;;;;;4235424;33;20076;-78
2023/05/14 05:47:59;;;;;;;4.05;2.58;;;;;;;;;;4234895;33;20038;-77
2023/05/14 05:50:26;;;;;;;6.47;2.67;;;;;;;;;;4236287;33;20043;-77
2023/05/14 05:52:52;;;;;;;7.47;2.60;;;;;;;;;;4237123;33;20034;-76
2023/05/14 05:55:18;;;;;;;4.30;2.90;;;;;;;;;;4236168;33;20120;-77
2023/05/14 05:57:44;;;;;;;5.00;2.75;;;;;;;;;;4234472;33;20072;-76
2023/05/14 06:00:11;;;;;;;4.30;2.60;;;;;;;;;;4207080;34;20172;-77
2023/05/14 06:02:39;;;;;;;5.28;2.72;;;;;;;;;;4202249;34;20375;-77
2023/05/14 06:05:06;;;;;;;10.45;2.72;;;;;;;;;;4194015;34;20046;-77
2023/05/14 06:07:32;;;;;;;3.95;2.80;;;;;;;;;;4206858;34;20122;-77
2023/05/14 06:09:59;;;;;;;5.45;2.85;;;;;;;;;;4237071;33;20447;-78
2023/05/14 06:12:25;;;;;;;3.37;2.62;;;;;;;;;;4251630;33;20049;-77
2023/05/14 06:14:54;;;;;;;9.27;3.03;;;;;;;;;;4248555;33;20057;-74
2023/05/14 06:17:20;;;;;;;8.45;2.92;;;;;;;;;;4249903;33;20060;-74
2023/05/14 06:19:46;;;;;;;7.47;2.72;;;;;;;;;;4247641;33;20057;-79
2023/05/14 06:22:13;;;;;;;12.68;3.35;;;;;;;;;;4249716;33;20384;-76
2023/05/14 06:24:39;;;;;;;3.30;2.62;;;;;;;;;;4249841;33;20054;-77
2023/05/14 06:27:06;;;;;;;3.30;2.72;;;;;;;;;;4248621;33;20046;-76
2023/05/14 06:29:32;;;;;;;7.57;3.17;;;;;;;;;;4248139;33;20106;-76
2023/05/14 06:32:01;;;;;;;6.28;2.80;;;;;;;;;;4245275;33;20137;-78
2023/05/14 06:34:28;;;;;;;16.25;3.55;;;;;;;;;;4251145;33;20076;-76
2023/05/14 06:36:54;;;;;;;4.95;2.37;;;;;;;;;;4253343;33;20042;-77
2023/05/14 06:39:20;;;;;;;4.57;2.90;;;;;;;;;;4239994;33;20034;-77
2023/05/14 06:41:47;;;;;;;7.75;2.90;;;;;;;;;;4253553;33;20053;-75
2023/05/14 06:44:13;;;;;;;3.50;2.40;;;;;;;;;;4254072;33;20059;-78
2023/05/14 06:46:39;;;;;;;7.28;3.45;;;;;;;;;;4248323;33;20062;-77
2023/05/14 06:49:06;;;;;;;8.07;3.05;;;;;;;;;;4263833;33;20127;-79
2023/05/14 06:51:32;;;;;;;13.02;3.08;;;;;;;;;;4259547;33;20057;-78
2023/05/14 06:53:58;;;;;;;8.57;3.72;;;;;;;;;;4252520;33;20068;-80
2023/05/14 06:56:24;;;;;;;7.65;4.03;;;;;;;;;;4250734;33;20418;-79
2023/05/14 06:58:51;;;;;;;7.90;3.53;;;;;;;;;;4258914;33;20145;-81
2023/05/14 07:01:16;;;;;;;6.43;3.28;;;;;;;;;;4254389;33;20050;-77
2023/05/14 07:03:43;;;;;;;5.78;3.42;;;;;;;;;;4266383;33;20189;-80
2023/05/14 07:06:09;;;;;;;6.07;3.78;;;;;;;;;;4262952;33;20370;-78
2023/05/14 07:08:35;;;;;;;9.25;3.70;;;;;;;;;;4255757;33;20107;-78
2023/05/14 07:11:01;;;;;;;15.57;4.85;;;;;;;;;;4240935;33;20119;-78
2023/05/14 07:13:27;;;;;;;6.40;3.40;;;;;;;;;;4254290;33;20773;-78
2023/05/14 07:15:56;;;;;;;12.32;3.83;;;;;;;;;;4262131;33;20042;-78
2023/05/14 07:18:23;;;;;;;8.23;3.15;;;;;;;;;;4271524;33;20068;-79
2023/05/14 07:20:49;;;;;;;13.70;3.78;;;;;;;;;;4270866;33;20152;-78
2023/05/14 07:23:15;;;;;;;8.15;3.47;;;;;;;;;;4275201;33;20092;-78
2023/05/14 07:25:41;;;;;;;9.68;4.10;;;;;;;;;;4265663;33;20082;-80
2023/05/14 07:28:07;;;;;;;10.68;3.92;;;;;;;;;;4278055;33;20045;-77
2023/05/14 07:30:33;;;;;;;8.07;3.45;;;;;;;;;;4271809;33;20047;-77
2023/05/14 07:33:00;;;;;;;7.90;3.50;;;;;;;;;;4274523;33;20050;-78
2023/05/14 07:35:26;;;;;;;13.38;4.87;;;;;;;;;;4246591;33;20566;-80
2023/05/14 07:37:52;;;;;;;8.25;3.35;;;;;;;;;;4249081;33;20054;-78
2023/05/14 07:40:19;;;;;;;4.60;3.40;;;;;;;;;;4239431;33;20429;-79
2023/05/14 07:42:45;;;;;;;2.92;2.65;;;;;;;;;;4236168;33;20123;-80
2023/05/14 07:45:11;;;;;;;17.40;3.53;;;;;;;;;;4237094;33;20050;-79
2023/05/14 07:47:38;;;;;;;8.88;3.50;;;;;;;;;;4227571;33;20116;-79
2023/05/14 07:50:04;;;;;;;4.87;2.90;;;;;;;;;;4239780;33;20075;-78
2023/05/14 07:52:30;;;;;;;6.87;3.33;;;;;;;;;;4238313;33;20042;-79
2023/05/14 07:54:56;;;;;;;5.25;3.10;;;;;;;;;;4237017;33;20085;-79
2023/05/14 07:57:22;;;;;;;9.55;3.25;;;;;;;;;;4236579;33;20046;-79
2023/05/14 07:59:48;;;;;;;6.62;4.28;;;;;;;;;;4235320;33;20103;-79
2023/05/14 08:02:15;;;;;;;7.87;3.35;;;;;;;;;;4243292;33;20099;-78
2023/05/14 08:04:41;;;;;;;14.48;2.72;;;;;;;;;;4250261;33;20042;-79
2023/05/14 08:07:08;;;;;;;3.33;2.97;;;;;;;;;;4251339;33;20054;-78
2023/05/14 08:09:34;;;;;;;7.78;3.28;;;;;;;;;;4251578;33;20088;-81
2023/05/14 08:12:00;;;;;;;9.60;4.15;;;;;;;;;;4259649;33;20228;-77
2023/05/14 08:14:27;;;;;;;7.68;3.03;;;;;;;;;;4256883;33;20034;-84
2023/05/14 08:16:53;;;;;;;4.55;2.58;;;;;;;;;;4264833;33;20057;-85
2023/05/14 08:19:19;;;;;;;4.95;3.03;;;;;;;;;;4266684;33;20530;-79
2023/05/14 08:21:45;;;;;;;7.43;3.22;;;;;;;;;;4267776;33;20176;-78
2023/05/14 08:24:11;;;;;;;3.92;2.97;;;;;;;;;;4266123;33;20145;-78
2023/05/14 08:26:38;;;;;;;6.80;2.83;;;;;;;;;;4267674;33;20062;-78
2023/05/14 08:29:04;;;;;;;4.28;2.72;;;;;;;;;;4274329;33;20382;-79
2023/05/14 08:31:30;;;;;;;13.18;3.75;;;;;;;;;;4268407;33;20187;-78
2023/05/14 08:34:02;;;;;;;7.85;2.62;;;;;;;;;;4266531;33;20041;-77
2023/05/14 08:36:29;;;;;;;9.85;2.95;;;;;;;;;;4265863;33;20063;-78
2023/05/14 08:38:55;;;;;;;10.57;2.70;;;;;;;;;;4264427;33;20888;-79
2023/05/14 08:41:21;;;;;;;8.82;2.70;;;;;;;;;;4275390;33;20517;-78
2023/05/14 08:43:47;;;;;;;5.72;2.85;;;;;;;;;;4280514;33;20045;-78
2023/05/14 08:46:16;;;;;;;5.55;2.78;;;;;;;;;;4265361;33;20037;-78
2023/05/14 08:48:44;;;;;;;9.90;2.80;;;;;;;;;;4263207;33;20527;-79
2023/05/14 08:51:11;;;;;;;3.12;1.75;;;;;;;;;;4263315;33;20053;-79
2023/05/14 08:53:39;;;;;;;7.30;2.40;;;;;;;;;;4250495;33;20529;-78
2023/05/14 08:56:05;;;;;;;3.65;1.92;;;;;;;;;;4253085;33;20050;-79
2023/05/14 08:58:31;;;;;;;11.40;1.80;;;;;;;;;;4249586;33;20034;-77
2023/05/14 09:00:58;;;;;;;7.30;2.00;;;;;;;;;;4234173;33;20046;-78
2023/05/14 09:03:25;;;;;;;3.03;1.98;;;;;;;;;;4233864;33;20054;-79
2023/05/14 09:05:52;;;;;;;8.10;2.45;;;;;;;;;;4240833;33;20092;-79
2023/05/14 09:08:18;;;;;;;6.70;2.78;;;;;;;;;;4234986;33;20161;-79
2023/05/14 09:10:44;;;;;;;10.00;1.90;;;;;;;;;;4219812;33;20500;-77
2023/05/14 09:13:10;;;;;;;7.47;1.87;;;;;;;;;;4211764;33;20058;-79
2023/05/14 09:15:37;;;;;;;9.55;2.45;;;;;;;;;;4219589;34;20178;-79
2023/05/14 09:18:04;;;;;;;2.78;2.58;;;;;;;;;;4233865;33;20098;-79
2023/05/14 09:20:31;;;;;;;7.10;2.35;;;;;;;;;;4239888;33;20651;-80
2023/05/14 09:22:58;;;;;;;4.57;2.65;;;;;;;;;;4234852;33;20042;-77
2023/05/14 09:25:25;;;;;;;11.00;2.45;;;;;;;;;;4234766;33;20078;-79
2023/05/14 09:27:53;;;;;;;8.70;2.03;;;;;;;;;;4235407;33;20182;-79
2023/05/14 09:30:19;;;;;;;7.95;2.10;;;;;;;;;;4235082;33;20043;-79
2023/05/14 09:32:47;;;;;;;13.43;3.05;;;;;;;;;;4246101;33;20506;-79
2023/05/14 09:35:16;;;;;;;4.15;1.87;;;;;;;;;;4248425;33;20493;-78
2023/05/14 09:37:45;;;;;;;4.55;1.75;;;;;;;;;;4251077;33;20076;-80
2023/05/14 09:40:12;;;;;;;8.05;1.92;;;;;;;;;;4250761;33;20045;-81
2023/05/14 09:42:39;;;;;;;3.22;2.47;;;;;;;;;;4287077;33;20063;-81
2023/05/14 09:45:09;;;;;;;8.50;2.62;;;;;;;;;;4290201;33;20508;-79
2023/05/14 09:47:35;;;;;;;5.03;2.20;;;;;;;;;;4288107;33;20390;-79
2023/05/14 09:50:02;;;;;;;5.25;2.15;;;;;;;;;;4291494;33;20037;-76
2023/05/14 09:52:28;;;;;;;3.97;2.60;;;;;;;;;;4291698;33;20080;-80
2023/05/14 09:54:55;;;;;;;3.65;2.05;;;;;;;;;;4296005;33;20088;-81
2023/05/14 09:57:20;;;;;;;1.83;1.60;;;;;;;;;;4290598;33;20066;-80
2023/05/14 09:59:47;;;;;;;5.22;2.40;;;;;;;;;;4291616;33;20064;-80
2023/05/14 10:02:36;;;;;;;2.90;2.62;;;;;;;;;;4292163;33;20077;-79
2023/05/14 10:05:05;;;;;;;5.37;2.10;;;;;;;;;;4259976;33;21566;-78
2023/05/14 10:07:52;;;;;;;11.57;2.33;;;;;;;;;;4265175;33;20045;-81
2023/05/14 10:10:20;;;;;;;16.30;2.20;;;;;;;;;;4264082;33;20888;-81
2023/05/14 10:12:55;;;;;;;8.65;1.92;;;;;;;;;;4255633;33;20099;-76
2023/05/14 10:15:25;;;;;;;4.85;2.00;;;;;;;;;;4249034;33;20982;-79
2023/05/14 10:17:54;;;;;;;1.92;1.67;;;;;;;;;;4256290;33;20056;-82
2023/05/14 10:20:21;;;;;;;13.95;2.67;;;;;;;;;;4234256;33;20072;-82
2023/05/14 10:22:47;;;;;;;1.60;1.50;;;;;;;;;;4218425;33;20367;-77
2023/05/14 10:25:13;;;;;;;6.93;1.73;;;;;;;;;;4220541;33;20060;-80
2023/05/14 10:27:39;;;;;;;2.53;2.33;;;;;;;;;;4223518;33;20190;-82
2023/05/14 10:30:11;;;;;;;4.47;1.70;;;;;;;;;;4223151;33;20073;-76
2023/05/14 10:32:37;;;;;;;3.50;1.48;;;;;;;;;;4222051;33;20051;-77
2023/05/14 10:35:14;;;;;;;3.45;1.90;;;;;;;;;;4220164;33;20076;-79
2023/05/14 10:37:40;;;;;;;3.65;1.52;;;;;;;;;;4221088;33;20469;-78
2023/05/14 10:40:08;;;;;;;2.15;2.05;;;;;;;;;;4208563;34;20129;-79
2023/05/14 10:42:39;;;;;;;1.77;1.40;;;;;;;;;;4223736;33;20218;-77
2023/05/14 10:45:07;;;;;;;5.00;1.50;;;;;;;;;;4250614;33;20967;-77
2023/05/14 10:47:34;;;;;;;8.95;1.60;;;;;;;;;;4251702;33;20501;-79
2023/05/14 10:50:08;;;;;;;3.22;1.87;;;;;;;;;;4252005;33;20046;-79
2023/05/14 10:52:35;;;;;;;5.57;1.83;;;;;;;;;;4250728;33;20232;-78
2023/05/14 10:55:03;;;;;;;8.48;3.12;;;;;;;;;;4281644;33;20943;-80
2023/05/14 10:57:30;;;;;;;6.37;2.33;;;;;;;;;;4284874;33;20506;-80
2023/05/14 10:59:58;;;;;;;1.42;1.42;;;;;;;;;;4282936;33;20092;-81
2023/05/14 11:02:25;;;;;;;3.33;1.50;;;;;;;;;;4448493;27;20057;-79
2023/05/14 11:05:12;;;;;;;6.18;1.45;;;;;;;;;;4291330;33;20057;-79
2023/05/14 11:07:40;;;;;;;4.70;1.70;;;;;;;;;;4285919;33;20097;-78
2023/05/14 11:10:17;;;;;;;2.50;1.75;;;;;;;;;;4288378;33;20060;-81
2023/05/14 11:12:44;;;;;;;7.95;1.48;;;;;;;;;;4290392;33;20049;-79
2023/05/14 11:15:11;;;;;;;7.43;1.58;;;;;;;;;;4289595;33;20065;-79
2023/05/14 11:17:39;;;;;;;5.20;2.90;;;;;;;;;;4290509;33;20049;-83
2023/05/14 11:20:06;;;;;;;1.70;1.60;;;;;;;;;;4290515;33;20491;-78
2023/05/14 11:22:32;;;;;;;1.30;1.25;;;;;;;;;;4295395;33;20038;-81
2023/05/14 11:24:58;;;;;;;1.40;1.30;;;;;;;;;;4293676;33;20057;-80
2023/05/14 11:27:31;;;;;;;4.10;1.65;;;;;;;;;;4294184;33;20061;-81
2023/05/14 11:30:03;;;;;;;1.30;1.20;;;;;;;;;;4276581;33;20049;-83
2023/05/14 11:32:33;;;;;;;3.05;1.30;;;;;;;;;;4293471;33;20048;-81
2023/05/14 11:35:00;;;;;;;1.77;1.20;;;;;;;;;;4288138;33;20453;-80
2023/05/14 11:37:25;;;;;;;2.62;1.40;;;;;;;;;;4252368;33;20080;-82
2023/05/14 11:39:54;;;;;;;9.70;1.40;;;;;;;;;;4258756;33;20059;-81
2023/05/14 11:42:21;;;;;;;1.98;1.25;;;;;;;;;;4263245;33;20700;-83
2023/05/14 11:44:48;;;;;;;2.65;1.40;;;;;;;;;;4252462;33;20496;-81
2023/05/14 11:47:15;;;;;;;1.50;1.50;;;;;;;;;;4251713;33;20457;-82
2023/05/14 11:49:42;;;;;;;4.95;1.40;;;;;;;;;;4257567;33;20232;-78
2023/05/14 11:52:10;;;;;;;8.13;1.55;;;;;;;;;;4250877;33;20129;-81
2023/05/14 11:54:37;;;;;;;3.85;1.37;;;;;;;;;;4251369;33;20353;-82
2023/05/14 11:57:12;;;;;;;5.78;1.62;;;;;;;;;;4250909;33;20046;-81
2023/05/14 11:59:39;;;;;;;1.80;1.70;;;;;;;;;;4251184;33;20754;-78
2023/05/14 12:02:12;;;;;;;2.47;1.37;;;;;;;;;;4251486;33;20095;-79
2023/05/14 12:04:40;;;;;;;1.40;1.40;;;;;;;;;;4243666;33;20414;-78
2023/05/14 12:07:08;;;;;;;1.65;1.52;;;;;;;;;;4243637;33;20127;-78
2023/05/14 12:09:35;;;;;;;1.77;1.17;;;;;;;;;;4243481;33;20061;-79
2023/05/14 12:12:06;;;;;;;1.00;1.00;;;;;;;;;;4241030;33;20083;-79
2023/05/14 12:14:35;;;;;;;2.50;1.40;;;;;;;;;;4256722;33;20127;-78
2023/05/14 12:17:02;;;;;;;3.35;1.50;;;;;;;;;;4263894;33;20034;-79
2023/05/14 12:19:29;;;;;;;3.05;1.55;;;;;;;;;;4263230;33;20050;-78
2023/05/14 12:21:55;;;;;;;4.75;1.10;;;;;;;;;;4260801;33;20064;-79
2023/05/14 12:24:24;;;;;;;1.75;1.15;;;;;;;;;;4262502;33;20037;-78
2023/05/14 12:26:51;;;;;;;2.03;1.42;;;;;;;;;;4264565;33;20535;-79
2023/05/14 12:29:20;;;;;;;2.47;1.33;;;;;;;;;;4262933;33;20085;-79
2023/05/14 12:31:48;;;;;;;3.28;1.15;;;;;;;;;;4263786;33;20033;-81
2023/05/14 12:34:16;;;;;;;2.65;1.10;;;;;;;;;;4261336;33;20065;-79
2023/05/14 12:36:49;;;;;;;4.50;1.50;;;;;;;;;;4264665;33;20085;-78
2023/05/14 12:39:18;;;;;;;6.47;1.45;;;;;;;;;;4263776;33;20034;-78
2023/05/14 12:41:44;;;;;;;1.30;1.20;;;;;;;;;;4263806;33;20072;-80
2023/05/14 12:44:11;;;;;;;1.30;1.20;;;;;;;;;;4246020;33;20057;-79
2023/05/14 12:46:39;;;;;;;5.28;1.80;;;;;;;;;;4249202;33;20492;-79
2023/05/14 12:49:06;;;;;;;1.65;1.10;;;;;;;;;;4268556;33;20071;-78
2023/05/14 12:51:33;;;;;;;4.12;1.20;;;;;;;;;;4273305;33;20073;-77
2023/05/14 12:54:00;;;;;;;1.30;1.20;;;;;;;;;;4263103;33;20092;-78
2023/05/14 12:56:27;;;;;;;1.50;0.93;;;;;;;;;;4261811;33;20054;-78
2023/05/14 12:58:55;;;;;;;1.30;1.02;;;;;;;;;;4223763;33;20047;-79
2023/05/14 13:01:23;;;;;;;1.15;1.10;;;;;;;;;;4225013;33;20061;-78
2023/05/14 13:03:51;;;;;;;1.08;1.08;;;;;;;;;;4207337;34;20378;-80
2023/05/14 13:06:19;;;;;;;7.60;1.80;;;;;;;;;;4202821;34;20150;-80
2023/05/14 13:08:47;;;;;;;1.00;1.00;;;;;;;;;;4206332;34;20065;-81
2023/05/14 13:11:14;;;;;;;5.47;1.00;;;;;;;;;;4208480;34;20479;-81
2023/05/14 13:13:42;;;;;;;1.25;1.23;;;;;;;;;;4208401;34;20220;-78
2023/05/14 13:16:09;;;;;;;4.90;1.65;;;;;;;;;;4219562;33;20078;-78
2023/05/14 13:18:36;;;;;;;3.33;1.00;;;;;;;;;;4220719;33;20055;-78
2023/05/14 13:21:05;;;;;;;3.42;1.10;;;;;;;;;;4219921;33;20420;-77
2023/05/14 13:23:32;;;;;;;1.30;1.15;;;;;;;;;;4220323;33;20053;-79
2023/05/14 13:26:00;;;;;;;0.90;0.90;;;;;;;;;;4233027;33;20102;-77
2023/05/14 13:28:30;;;;;;;1.05;1.05;;;;;;;;;;4234618;33;20111;-78
2023/05/14 13:31:02;;;;;;;4.72;1.00;;;;;;;;;;4259952;33;20782;-79
2023/05/14 13:33:41;;;;;;;1.80;1.30;;;;;;;;;;4267861;33;20059;-79
2023/05/14 13:36:09;;;;;;;1.20;1.00;;;;;;;;;;4260883;33;20049;-79
2023/05/14 13:38:37;;;;;;;2.10;1.10;;;;;;;;;;4260987;33;20396;-82
2023/05/14 13:41:04;;;;;;;1.58;1.48;;;;;;;;;;4262100;33;20503;-78
2023/05/14 13:43:31;;;;;;;1.12;1.00;;;;;;;;;;4273416;33;20053;-86
2023/05/14 13:45:58;;;;;;;1.50;1.40;;;;;;;;;;4292563;33;20069;-82
2023/05/14 13:48:25;;;;;;;7.18;1.25;;;;;;;;;;4286616;33;20407;-78
2023/05/14 13:50:52;;;;;;;0.98;0.98;;;;;;;;;;4291551;33;20081;-77
2023/05/14 13:53:19;;;;;;;1.40;1.08;;;;;;;;;;4291450;33;20610;-78
2023/05/14 13:55:45;;;;;;;1.52;1.42;;;;;;;;;;4277576;33;20033;-79
2023/05/14 13:58:12;;;;;;;1.40;1.40;;;;;;;;;;4276102;33;20064;-77
2023/05/14 14:00:38;;;;;;;2.37;1.60;;;;;;;;;;4274827;33;20046;-78
2023/05/14 14:03:06;;;;;;;1.37;1.02;;;;;;;;;;4275795;33;20075;-78
2023/05/14 14:05:33;;;;;;;1.20;1.20;;;;;;;;;;4277194;33;20091;-76
2023/05/14 14:07:59;;;;;;;1.30;1.30;;;;;;;;;;4271600;33;20202;-78
2023/05/14 14:10:25;;;;;;;5.18;1.60;;;;;;;;;;4253697;33;20070;-80
2023/05/14 14:12:51;;;;;;;5.35;2.05;;;;;;;;;;4259674;33;20033;-77
2023/05/14 14:15:17;;;;;;;1.20;1.20;;;;;;;;;;4253286;33;20064;-77
2023/05/14 14:17:44;;;;;;;1.58;1.48;;;;;;;;;;4272101;33;20054;-78
2023/05/14 14:20:10;;;;;;;1.95;1.27;;;;;;;;;;4268924;33;20088;-76
2023/05/14 14:22:37;;;;;;;3.40;1.52;;;;;;;;;;4262248;33;20055;-79
2023/05/14 14:25:03;;;;;;;1.73;1.62;;;;;;;;;;4267131;33;20068;-80
2023/05/14 14:27:34;;;;;;;4.78;1.48;;;;;;;;;;4271221;33;20207;-82
2023/05/14 14:30:00;;;;;;;1.33;1.33;;;;;;;;;;4254105;33;20072;-78
2023/05/14 14:32:27;;;;;;;1.75;1.65;;;;;;;;;;4245873;33;20140;-78
2023/05/14 14:34:53;;;;;;;1.62;1.35;;;;;;;;;;4250365;33;20053;-81
2023/05/14 14:37:20;;;;;;;2.83;2.00;;;;;;;;;;4252651;33;20441;-79
2023/05/14 14:39:46;;;;;;;7.82;2.85;;;;;;;;;;4249513;33;20091;-80
2023/05/14 14:42:12;;;;;;;1.70;1.60;;;;;;;;;;4272314;33;20030;-82
2023/05/14 14:44:38;;;;;;;1.40;1.30;;;;;;;;;;4261672;33;20113;-78
2023/05/14 14:47:05;;;;;;;3.22;1.20;;;;;;;;;;4262560;33;20062;-81
2023/05/14 14:49:31;;;;;;;2.55;1.83;;;;;;;;;;4269038;33;20045;-77
2023/05/14 14:51:57;;;;;;;1.20;1.20;;;;;;;;;;4278557;33;20631;-79
2023/05/14 14:54:23;;;;;;;4.53;1.45;;;;;;;;;;4281274;33;20545;-80
2023/05/14 14:56:51;;;;;;;2.20;1.37;;;;;;;;;;4276300;33;20579;-78
2023/05/14 14:59:17;;;;;;;4.78;1.40;;;;;;;;;;4254947;33;20236;-79
2023/05/14 15:01:43;;;;;;;13.52;1.70;;;;;;;;;;4246346;33;20555;-77
2023/05/14 15:04:09;;;;;;;2.45;1.40;;;;;;;;;;4248730;33;20066;-79
2023/05/14 15:06:35;;;;;;;10.07;2.95;;;;;;;;;;4248843;33;20059;-79
2023/05/14 15:09:02;;;;;;;6.28;1.80;;;;;;;;;;4204103;33;20035;-78
2023/05/14 15:11:28;;;;;;;5.87;1.60;;;;;;;;;;4208855;34;20999;-79
2023/05/14 15:13:54;;;;;;;1.40;1.30;;;;;;;;;;4210531;34;20518;-76
2023/05/14 15:16:20;;;;;;;4.10;1.30;;;;;;;;;;4202754;34;20263;-76
2023/05/14 15:18:46;;;;;;;7.95;1.67;;;;;;;;;;4207941;34;20047;-76
2023/05/14 15:21:12;;;;;;;8.93;1.65;;;;;;;;;;4196545;34;20092;-78
2023/05/14 15:23:39;;;;;;;6.25;1.48;;;;;;;;;;4207747;33;20043;-79
2023/05/14 15:26:05;;;;;;;2.10;1.90;;;;;;;;;;4209269;34;20064;-78
2023/05/14 15:28:31;;;;;;;2.70;1.65;;;;;;;;;;4207896;33;20171;-78
2023/05/14 15:30:58;;;;;;;4.07;1.35;;;;;;;;;;4196646;34;20073;-77
2023/05/14 15:33:23;;;;;;;3.85;1.80;;;;;;;;;;4205089;34;20770;-78
2023/05/14 15:35:50;;;;;;;6.32;1.98;;;;;;;;;;4198745;34;20102;-77
2023/05/14 15:38:16;;;;;;;4.35;1.83;;;;;;;;;;4194895;34;20224;-77
2023/05/14 15:40:42;;;;;;;2.92;1.95;;;;;;;;;;4220188;33;20487;-77
2023/05/14 15:43:08;;;;;;;2.87;1.85;;;;;;;;;;4227834;33;20106;-78
2023/05/14 15:45:35;;;;;;;2.87;1.98;;;;;;;;;;4229276;33;20058;-77
2023/05/14 15:48:01;;;;;;;1.60;1.20;;;;;;;;;;4225002;33;20242;-77
2023/05/14 15:50:27;;;;;;;1.85;1.48;;;;;;;;;;4224978;33;20477;-78
2023/05/14 15:52:53;;;;;;;6.10;1.77;;;;;;;;;;4236595;33;20038;-76
2023/05/14 15:55:20;;;;;;;6.82;1.60;;;;;;;;;;4238929;33;20272;-77
2023/05/14 15:57:45;;;;;;;3.85;1.60;;;;;;;;;;4233207;33;20058;-79
2023/05/14 16:00:13;;;;;;;3.12;1.80;;;;;;;;;;4240997;33;20500;-79
2023/05/14 16:02:40;;;;;;;5.35;1.60;;;;;;;;;;4248192;33;20073;-79
2023/05/14 16:05:06;;;;;;;6.80;1.70;;;;;;;;;;4260626;33;20472;-80
2023/05/14 16:07:32;;;;;;;1.50;1.40;;;;;;;;;;4264651;33;20123;-77
2023/05/14 16:09:59;;;;;;;5.32;1.58;;;;;;;;;;4264924;33;20080;-79
2023/05/14 16:12:25;;;;;;;7.05;1.55;;;;;;;;;;4265201;33;20549;-79
2023/05/14 16:14:51;;;;;;;3.03;1.62;;;;;;;;;;4264469;33;20152;-78
2023/05/14 16:17:17;;;;;;;3.78;1.85;;;;;;;;;;4266457;33;20042;-79
2023/05/14 16:19:43;;;;;;;3.10;1.90;;;;;;;;;;4268383;33;20496;-79
2023/05/14 16:22:10;;;;;;;1.85;1.75;;;;;;;;;;4270594;33;20636;-78
2023/05/14 16:24:38;;;;;;;4.60;1.58;;;;;;;;;;4261488;33;20475;-78
2023/05/14 16:27:05;;;;;;;4.53;2.00;;;;;;;;;;4263155;33;20065;-79
2023/05/14 16:29:32;;;;;;;4.00;2.33;;;;;;;;;;4257912;33;20108;-79
2023/05/14 16:31:59;;;;;;;3.42;1.95;;;;;;;;;;4227219;33;20127;-78
2023/05/14 16:34:25;;;;;;;3.17;1.37;;;;;;;;;;4232535;33;20072;-77
2023/05/14 16:36:51;;;;;;;1.80;1.40;;;;;;;;;;4236395;33;20113;-79
2023/05/14 16:39:18;;;;;;;2.95;1.48;;;;;;;;;;4236698;33;20046;-77